sensor_id;sensor_type;location;lat;lon;timestamp;temperature;humidity
41882;DHT22;27562;47.524;12.404;2023-09-08T00:01:27;15.90;99.90
41882;DHT22;27562;47.524;12.404;2023-09-08T00:03:53;15.90;99.90
41882;DHT22;27562;47.524;12.404;2023-09-08T00:06:19;15.90;99.90
41882;DHT22;27562;47.524;12.404;2023-09-08T00:08:44;15.80;99.90
41882;DHT22;27562;47.524;12.404;2023-09-08T00:11:10;15.80;99.90
41882;DHT22;27562;47.524;12.404;2023-09-08T00:13:35;15.80;99.90
41882;DHT22;27562;47.524;12.404;2023-09-08T00:16:01;15.80;99.90
41882;DHT22;27562;47.524;12.404;2023-09-08T00:18:27;15.80;99.90
41882;DHT22;27562;47.524;12.404;2023-09-08T00:20:52;15.80;99.90
41882;DHT22;27562;47.524;12.404;2023-09-08T00:23:18;15.70;99.90
41882;DHT22;27562;47.524;12.404;2023-09-08T00:25:44;15.70;99.90
41882;DHT22;27562;47.524;12.404;2023-09-08T00:28:09;15.60;99.90
41882;DHT22;27562;47.524;12.404;2023-09-08T00:30:35;15.60;99.90
41882;DHT22;27562;47.524;12.404;2023-09-08T00:33:01;15.60;99.90
41882;DHT22;27562;47.524;12.404;2023-09-08T00:35:26;15.60;99.90
41882;DHT22;27562;47.524;12.404;2023-09-08T00:37:52;15.50;99.90
41882;DHT22;27562;47.524;12.404;2023-09-08T00:40:18;15.50;99.90
41882;DHT22;27562;47.524;12.404;2023-09-08T00:42:43;15.50;99.90
41882;DHT22;27562;47.524;12.404;2023-09-08T00:45:09;15.40;99.90
41882;DHT22;27562;47.524;12.404;2023-09-08T00:47:35;15.30;99.90
41882;DHT22;27562;47.524;12.404;2023-09-08T00:50:03;15.30;99.90
41882;DHT22;27562;47.524;12.404;2023-09-08T00:52:29;15.20;99.90
41882;DHT22;27562;47.524;12.404;2023-09-08T00:54:58;15.10;99.90
41882;DHT22;27562;47.524;12.404;2023-09-08T00:57:24;15.00;99.90
41882;DHT22;27562;47.524;12.404;2023-09-08T00:59:50;15.00;99.90
41882;DHT22;27562;47.524;12.404;2023-09-08T01:02:16;14.90;99.90
41882;DHT22;27562;47.524;12.404;2023-09-08T01:04:42;14.90;99.90
41882;DHT22;27562;47.524;12.404;2023-09-08T01:07:09;14.80;99.90
41882;DHT22;27562;47.524;12.404;2023-09-08T01:09:36;14.80;99.90
41882;DHT22;27562;47.524;12.404;2023-09-08T01:12:07;14.70;99.90
41882;DHT22;27562;47.524;12.404;2023-09-08T01:14:33;14.60;99.90
41882;DHT22;27562;47.524;12.404;2023-09-08T01:16:58;14.60;99.90
41882;DHT22;27562;47.524;12.404;2023-09-08T01:19:24;14.60;99.90
41882;DHT22;27562;47.524;12.404;2023-09-08T01:27:34;14.60;99.90
41882;DHT22;27562;47.524;12.404;2023-09-08T01:30:02;14.60;99.90
41882;DHT22;27562;47.524;12.404;2023-09-08T01:32:29;14.60;99.90
41882;DHT22;27562;47.524;12.404;2023-09-08T01:34:57;14.60;99.90
41882;DHT22;27562;47.524;12.404;2023-09-08T01:37:23;14.60;99.90
41882;DHT22;27562;47.524;12.404;2023-09-08T01:39:49;14.50;99.90
41882;DHT22;27562;47.524;12.404;2023-09-08T01:42:15;14.50;99.90
41882;DHT22;27562;47.524;12.404;2023-09-08T01:44:40;14.50;99.90
41882;DHT22;27562;47.524;12.404;2023-09-08T01:47:06;14.50;99.90
41882;DHT22;27562;47.524;12.404;2023-09-08T01:49:32;14.50;99.90
41882;DHT22;27562;47.524;12.404;2023-09-08T01:51:57;14.50;99.90
41882;DHT22;27562;47.524;12.404;2023-09-08T01:54:23;14.40;99.90
41882;DHT22;27562;47.524;12.404;2023-09-08T01:56:49;14.40;99.90
41882;DHT22;27562;47.524;12.404;2023-09-08T01:59:15;14.40;99.90
41882;DHT22;27562;47.524;12.404;2023-09-08T02:01:41;14.40;99.90
41882;DHT22;27562;47.524;12.404;2023-09-08T02:04:07;14.40;99.90
41882;DHT22;27562;47.524;12.404;2023-09-08T02:06:32;14.40;99.90
41882;DHT22;27562;47.524;12.404;2023-09-08T02:08:58;14.40;99.90
41882;DHT22;27562;47.524;12.404;2023-09-08T02:11:23;14.30;99.90
41882;DHT22;27562;47.524;12.404;2023-09-08T02:13:49;14.30;99.90
41882;DHT22;27562;47.524;12.404;2023-09-08T02:16:15;14.30;99.90
41882;DHT22;27562;47.524;12.404;2023-09-08T02:18:45;14.20;99.90
41882;DHT22;27562;47.524;12.404;2023-09-08T02:21:11;14.20;99.90
41882;DHT22;27562;47.524;12.404;2023-09-08T02:23:37;14.10;99.90
41882;DHT22;27562;47.524;12.404;2023-09-08T02:26:03;14.10;99.90
41882;DHT22;27562;47.524;12.404;2023-09-08T02:28:29;14.10;99.90
41882;DHT22;27562;47.524;12.404;2023-09-08T02:30:55;14.00;99.90
41882;DHT22;27562;47.524;12.404;2023-09-08T02:33:20;14.00;99.90
41882;DHT22;27562;47.524;12.404;2023-09-08T02:35:46;14.00;99.90
41882;DHT22;27562;47.524;12.404;2023-09-08T02:38:12;14.00;99.90
41882;DHT22;27562;47.524;12.404;2023-09-08T02:40:37;13.90;99.90
41882;DHT22;27562;47.524;12.404;2023-09-08T02:43:04;13.90;99.90
41882;DHT22;27562;47.524;12.404;2023-09-08T02:45:30;13.90;99.90
41882;DHT22;27562;47.524;12.404;2023-09-08T02:47:55;13.90;99.90
41882;DHT22;27562;47.524;12.404;2023-09-08T02:50:22;13.90;99.90
41882;DHT22;27562;47.524;12.404;2023-09-08T02:52:48;13.90;99.90
41882;DHT22;27562;47.524;12.404;2023-09-08T02:55:13;13.80;99.90
41882;DHT22;27562;47.524;12.404;2023-09-08T02:57:39;13.80;99.90
41882;DHT22;27562;47.524;12.404;2023-09-08T03:00:06;13.70;99.90
41882;DHT22;27562;47.524;12.404;2023-09-08T03:02:33;13.70;99.90
41882;DHT22;27562;47.524;12.404;2023-09-08T03:04:58;13.70;99.90
41882;DHT22;27562;47.524;12.404;2023-09-08T03:07:24;13.70;99.90
41882;DHT22;27562;47.524;12.404;2023-09-08T03:09:49;13.60;99.90
41882;DHT22;27562;47.524;12.404;2023-09-08T03:12:15;13.60;99.90
41882;DHT22;27562;47.524;12.404;2023-09-08T03:14:41;13.60;99.90
41882;DHT22;27562;47.524;12.404;2023-09-08T03:17:06;13.50;99.90
41882;DHT22;27562;47.524;12.404;2023-09-08T03:19:33;13.50;99.90
41882;DHT22;27562;47.524;12.404;2023-09-08T03:21:58;13.50;99.90
41882;DHT22;27562;47.524;12.404;2023-09-08T03:24:24;13.50;99.90
41882;DHT22;27562;47.524;12.404;2023-09-08T03:26:50;13.40;99.90
41882;DHT22;27562;47.524;12.404;2023-09-08T03:29:15;13.40;99.90
41882;DHT22;27562;47.524;12.404;2023-09-08T03:31:41;13.40;99.90
41882;DHT22;27562;47.524;12.404;2023-09-08T03:34:07;13.40;99.90
41882;DHT22;27562;47.524;12.404;2023-09-08T03:36:33;13.40;99.90
41882;DHT22;27562;47.524;12.404;2023-09-08T03:39:01;13.40;99.90
41882;DHT22;27562;47.524;12.404;2023-09-08T03:41:27;13.30;99.90
41882;DHT22;27562;47.524;12.404;2023-09-08T03:43:53;13.30;99.90
41882;DHT22;27562;47.524;12.404;2023-09-08T03:46:18;13.20;99.90
41882;DHT22;27562;47.524;12.404;2023-09-08T03:48:44;13.20;99.90
41882;DHT22;27562;47.524;12.404;2023-09-08T03:51:10;13.20;99.90
41882;DHT22;27562;47.524;12.404;2023-09-08T03:53:35;13.20;99.90
41882;DHT22;27562;47.524;12.404;2023-09-08T03:56:01;13.10;99.90
41882;DHT22;27562;47.524;12.404;2023-09-08T03:58:27;13.10;99.90
41882;DHT22;27562;47.524;12.404;2023-09-08T04:00:52;13.10;99.90
41882;DHT22;27562;47.524;12.404;2023-09-08T04:03:18;13.10;99.90
41882;DHT22;27562;47.524;12.404;2023-09-08T04:05:44;13.10;99.90
41882;DHT22;27562;47.524;12.404;2023-09-08T04:08:09;13.10;99.90
41882;DHT22;27562;47.524;12.404;2023-09-08T04:10:35;13.10;99.90
41882;DHT22;27562;47.524;12.404;2023-09-08T04:13:01;13.10;99.90
41882;DHT22;27562;47.524;12.404;2023-09-08T04:15:26;13.10;99.90
41882;DHT22;27562;47.524;12.404;2023-09-08T04:17:52;13.00;99.90
41882;DHT22;27562;47.524;12.404;2023-09-08T04:20:18;13.00;99.90
41882;DHT22;27562;47.524;12.404;2023-09-08T04:22:43;13.00;99.90
41882;DHT22;27562;47.524;12.404;2023-09-08T04:25:11;12.90;99.90
41882;DHT22;27562;47.524;12.404;2023-09-08T04:27:37;12.90;99.90
41882;DHT22;27562;47.524;12.404;2023-09-08T04:30:04;12.90;99.90
41882;DHT22;27562;47.524;12.404;2023-09-08T04:32:30;12.90;99.90
41882;DHT22;27562;47.524;12.404;2023-09-08T04:34:55;12.80;99.90
41882;DHT22;27562;47.524;12.404;2023-09-08T04:37:21;12.80;99.90
41882;DHT22;27562;47.524;12.404;2023-09-08T04:39:47;12.80;99.90
41882;DHT22;27562;47.524;12.404;2023-09-08T04:42:12;12.80;99.90
41882;DHT22;27562;47.524;12.404;2023-09-08T04:44:38;12.70;99.90
41882;DHT22;27562;47.524;12.404;2023-09-08T04:47:04;12.60;99.90
41882;DHT22;27562;47.524;12.404;2023-09-08T04:49:30;12.50;99.90
41882;DHT22;27562;47.524;12.404;2023-09-08T04:51:56;12.30;99.90
41882;DHT22;27562;47.524;12.404;2023-09-08T04:54:22;12.20;99.90
41882;DHT22;27562;47.524;12.404;2023-09-08T04:56:52;12.10;99.90
41882;DHT22;27562;47.524;12.404;2023-09-08T04:59:18;12.20;99.90
41882;DHT22;27562;47.524;12.404;2023-09-08T05:01:43;12.20;99.90
41882;DHT22;27562;47.524;12.404;2023-09-08T05:04:09;12.20;99.90
41882;DHT22;27562;47.524;12.404;2023-09-08T05:06:36;12.30;99.90
41882;DHT22;27562;47.524;12.404;2023-09-08T05:09:01;12.30;99.90
41882;DHT22;27562;47.524;12.404;2023-09-08T05:11:27;12.30;99.90
41882;DHT22;27562;47.524;12.404;2023-09-08T05:13:53;12.40;99.90
41882;DHT22;27562;47.524;12.404;2023-09-08T05:16:19;12.30;99.90
41882;DHT22;27562;47.524;12.404;2023-09-08T05:18:51;12.40;99.90
41882;DHT22;27562;47.524;12.404;2023-09-08T05:21:17;12.30;99.90
41882;DHT22;27562;47.524;12.404;2023-09-08T05:23:43;12.40;99.90
41882;DHT22;27562;47.524;12.404;2023-09-08T05:26:08;12.40;99.90
41882;DHT22;27562;47.524;12.404;2023-09-08T05:28:34;12.40;99.90
41882;DHT22;27562;47.524;12.404;2023-09-08T05:30:59;12.40;99.90
41882;DHT22;27562;47.524;12.404;2023-09-08T05:33:25;12.40;99.90
41882;DHT22;27562;47.524;12.404;2023-09-08T05:35:51;12.40;99.90
41882;DHT22;27562;47.524;12.404;2023-09-08T05:38:17;12.40;99.90
41882;DHT22;27562;47.524;12.404;2023-09-08T05:40:42;12.50;99.90
41882;DHT22;27562;47.524;12.404;2023-09-08T05:43:08;12.50;99.90
41882;DHT22;27562;47.524;12.404;2023-09-08T05:45:34;12.50;99.90
41882;DHT22;27562;47.524;12.404;2023-09-08T05:48:00;12.60;99.90
41882;DHT22;27562;47.524;12.404;2023-09-08T05:50:26;12.60;99.90
41882;DHT22;27562;47.524;12.404;2023-09-08T05:52:52;12.70;99.90
41882;DHT22;27562;47.524;12.404;2023-09-08T05:55:18;12.70;99.90
41882;DHT22;27562;47.524;12.404;2023-09-08T05:57:43;12.70;99.90
41882;DHT22;27562;47.524;12.404;2023-09-08T06:00:09;12.80;99.90
41882;DHT22;27562;47.524;12.404;2023-09-08T06:02:35;12.80;99.90
41882;DHT22;27562;47.524;12.404;2023-09-08T06:05:01;12.90;99.90
41882;DHT22;27562;47.524;12.404;2023-09-08T06:07:27;12.90;99.90
41882;DHT22;27562;47.524;12.404;2023-09-08T06:09:53;13.00;99.90
41882;DHT22;27562;47.524;12.404;2023-09-08T06:12:19;13.00;99.90
41882;DHT22;27562;47.524;12.404;2023-09-08T06:14:44;13.10;99.90
41882;DHT22;27562;47.524;12.404;2023-09-08T06:17:10;13.10;99.90
41882;DHT22;27562;47.524;12.404;2023-09-08T06:19:36;13.10;99.90
41882;DHT22;27562;47.524;12.404;2023-09-08T06:22:01;13.20;99.90
41882;DHT22;27562;47.524;12.404;2023-09-08T06:24:27;13.30;99.90
41882;DHT22;27562;47.524;12.404;2023-09-08T06:26:53;13.30;99.90
41882;DHT22;27562;47.524;12.404;2023-09-08T06:29:19;13.40;99.90
41882;DHT22;27562;47.524;12.404;2023-09-08T06:31:44;13.40;99.90
41882;DHT22;27562;47.524;12.404;2023-09-08T06:34:10;13.50;99.90
41882;DHT22;27562;47.524;12.404;2023-09-08T06:36:36;13.60;99.90
41882;DHT22;27562;47.524;12.404;2023-09-08T06:39:02;13.60;99.90
41882;DHT22;27562;47.524;12.404;2023-09-08T06:41:27;13.70;99.90
41882;DHT22;27562;47.524;12.404;2023-09-08T06:43:54;13.80;99.90
41882;DHT22;27562;47.524;12.404;2023-09-08T06:46:19;13.80;99.90
41882;DHT22;27562;47.524;12.404;2023-09-08T06:48:45;13.90;99.90
41882;DHT22;27562;47.524;12.404;2023-09-08T06:51:11;13.90;99.90
41882;DHT22;27562;47.524;12.404;2023-09-08T06:53:37;14.00;99.90
41882;DHT22;27562;47.524;12.404;2023-09-08T06:56:02;14.10;99.90
41882;DHT22;27562;47.524;12.404;2023-09-08T06:58:28;14.20;99.90
41882;DHT22;27562;47.524;12.404;2023-09-08T07:00:54;14.30;99.90
41882;DHT22;27562;47.524;12.404;2023-09-08T07:03:21;14.40;99.90
41882;DHT22;27562;47.524;12.404;2023-09-08T07:05:50;14.50;99.90
41882;DHT22;27562;47.524;12.404;2023-09-08T07:08:16;14.50;99.90
41882;DHT22;27562;47.524;12.404;2023-09-08T07:10:43;14.60;99.90
41882;DHT22;27562;47.524;12.404;2023-09-08T07:13:09;14.70;99.90
41882;DHT22;27562;47.524;12.404;2023-09-08T07:15:35;14.80;99.90
41882;DHT22;27562;47.524;12.404;2023-09-08T07:18:00;14.90;99.90
41882;DHT22;27562;47.524;12.404;2023-09-08T07:20:26;15.00;99.90
41882;DHT22;27562;47.524;12.404;2023-09-08T07:22:52;15.10;99.90
41882;DHT22;27562;47.524;12.404;2023-09-08T07:25:17;15.20;99.90
41882;DHT22;27562;47.524;12.404;2023-09-08T07:27:43;15.30;99.90
41882;DHT22;27562;47.524;12.404;2023-09-08T07:30:09;15.30;99.90
41882;DHT22;27562;47.524;12.404;2023-09-08T07:32:35;15.40;99.90
41882;DHT22;27562;47.524;12.404;2023-09-08T07:35:00;15.50;99.90
41882;DHT22;27562;47.524;12.404;2023-09-08T07:37:26;15.60;99.90
41882;DHT22;27562;47.524;12.404;2023-09-08T07:39:52;15.70;99.90
41882;DHT22;27562;47.524;12.404;2023-09-08T07:42:17;15.70;99.90
41882;DHT22;27562;47.524;12.404;2023-09-08T07:44:44;15.80;99.90
41882;DHT22;27562;47.524;12.404;2023-09-08T07:47:10;16.00;99.90
41882;DHT22;27562;47.524;12.404;2023-09-08T07:49:36;16.00;99.90
41882;DHT22;27562;47.524;12.404;2023-09-08T07:52:01;16.10;99.90
41882;DHT22;27562;47.524;12.404;2023-09-08T07:54:30;16.30;99.90
41882;DHT22;27562;47.524;12.404;2023-09-08T07:56:56;16.40;99.90
41882;DHT22;27562;47.524;12.404;2023-09-08T07:59:21;16.50;99.90
41882;DHT22;27562;47.524;12.404;2023-09-08T08:01:47;16.70;99.90
41882;DHT22;27562;47.524;12.404;2023-09-08T08:04:13;16.80;99.90
41882;DHT22;27562;47.524;12.404;2023-09-08T08:06:38;16.90;99.90
41882;DHT22;27562;47.524;12.404;2023-09-08T08:09:04;17.00;99.90
41882;DHT22;27562;47.524;12.404;2023-09-08T08:11:30;17.10;99.90
41882;DHT22;27562;47.524;12.404;2023-09-08T08:13:55;17.20;99.90
41882;DHT22;27562;47.524;12.404;2023-09-08T08:16:22;17.40;99.90
41882;DHT22;27562;47.524;12.404;2023-09-08T08:18:49;17.60;99.90
41882;DHT22;27562;47.524;12.404;2023-09-08T08:21:15;17.70;99.90
41882;DHT22;27562;47.524;12.404;2023-09-08T08:23:40;17.80;99.90
41882;DHT22;27562;47.524;12.404;2023-09-08T08:26:06;18.00;99.90
41882;DHT22;27562;47.524;12.404;2023-09-08T08:28:32;18.20;99.90
41882;DHT22;27562;47.524;12.404;2023-09-08T08:30:58;18.40;99.90
41882;DHT22;27562;47.524;12.404;2023-09-08T08:33:24;18.50;99.90
41882;DHT22;27562;47.524;12.404;2023-09-08T08:35:52;18.70;99.90
41882;DHT22;27562;47.524;12.404;2023-09-08T08:38:18;18.80;99.90
41882;DHT22;27562;47.524;12.404;2023-09-08T08:40:54;19.00;99.90
41882;DHT22;27562;47.524;12.404;2023-09-08T08:43:26;19.10;99.90
41882;DHT22;27562;47.524;12.404;2023-09-08T08:46:03;19.20;99.90
41882;DHT22;27562;47.524;12.404;2023-09-08T08:48:32;19.30;99.90
41882;DHT22;27562;47.524;12.404;2023-09-08T08:51:04;19.40;99.90
41882;DHT22;27562;47.524;12.404;2023-09-08T08:53:31;19.60;99.90
41882;DHT22;27562;47.524;12.404;2023-09-08T08:55:59;19.70;99.90
41882;DHT22;27562;47.524;12.404;2023-09-08T08:58:27;19.90;99.90
41882;DHT22;27562;47.524;12.404;2023-09-08T09:01:00;20.00;99.90
41882;DHT22;27562;47.524;12.404;2023-09-08T09:03:29;20.20;99.90
41882;DHT22;27562;47.524;12.404;2023-09-08T09:05:57;20.30;99.90
41882;DHT22;27562;47.524;12.404;2023-09-08T09:08:23;20.50;99.90
41882;DHT22;27562;47.524;12.404;2023-09-08T09:10:51;20.70;99.90
41882;DHT22;27562;47.524;12.404;2023-09-08T09:13:19;20.80;99.90
41882;DHT22;27562;47.524;12.404;2023-09-08T09:15:53;21.00;99.90
41882;DHT22;27562;47.524;12.404;2023-09-08T09:19:17;21.10;99.90
41882;DHT22;27562;47.524;12.404;2023-09-08T09:22:01;21.20;99.90
41882;DHT22;27562;47.524;12.404;2023-09-08T09:24:57;21.40;99.90
41882;DHT22;27562;47.524;12.404;2023-09-08T09:27:25;21.50;99.90
41882;DHT22;27562;47.524;12.404;2023-09-08T09:30:21;21.70;99.90
41882;DHT22;27562;47.524;12.404;2023-09-08T09:33:20;21.90;99.90
41882;DHT22;27562;47.524;12.404;2023-09-08T09:36:22;22.00;99.90
41882;DHT22;27562;47.524;12.404;2023-09-08T09:38:47;22.10;99.90
41882;DHT22;27562;47.524;12.404;2023-09-08T09:41:13;22.20;99.90
41882;DHT22;27562;47.524;12.404;2023-09-08T09:43:39;22.40;99.90
41882;DHT22;27562;47.524;12.404;2023-09-08T09:46:07;22.40;99.90
41882;DHT22;27562;47.524;12.404;2023-09-08T09:48:35;22.60;99.90
41882;DHT22;27562;47.524;12.404;2023-09-08T09:51:15;22.70;99.90
41882;DHT22;27562;47.524;12.404;2023-09-08T09:53:41;22.80;99.90
41882;DHT22;27562;47.524;12.404;2023-09-08T09:56:08;23.00;99.90
41882;DHT22;27562;47.524;12.404;2023-09-08T09:58:35;23.20;99.90
41882;DHT22;27562;47.524;12.404;2023-09-08T10:01:02;23.30;99.40
41882;DHT22;27562;47.524;12.404;2023-09-08T10:03:29;23.50;99.80
41882;DHT22;27562;47.524;12.404;2023-09-08T10:05:56;23.60;99.70
41882;DHT22;27562;47.524;12.404;2023-09-08T10:08:22;23.70;99.60
41882;DHT22;27562;47.524;12.404;2023-09-08T10:10:50;23.80;99.00
41882;DHT22;27562;47.524;12.404;2023-09-08T10:13:28;24.00;98.80
41882;DHT22;27562;47.524;12.404;2023-09-08T10:15:57;24.10;97.90
41882;DHT22;27562;47.524;12.404;2023-09-08T10:18:24;24.20;97.30
41882;DHT22;27562;47.524;12.404;2023-09-08T10:20:52;24.30;96.80
41882;DHT22;27562;47.524;12.404;2023-09-08T10:23:41;24.40;96.80
41882;DHT22;27562;47.524;12.404;2023-09-08T10:26:11;24.50;96.00
41882;DHT22;27562;47.524;12.404;2023-09-08T10:28:38;24.60;95.70
41882;DHT22;27562;47.524;12.404;2023-09-08T10:31:05;24.70;95.20
41882;DHT22;27562;47.524;12.404;2023-09-08T10:33:33;24.70;94.10
41882;DHT22;27562;47.524;12.404;2023-09-08T10:36:01;24.90;95.10
41882;DHT22;27562;47.524;12.404;2023-09-08T10:38:32;24.90;95.20
41882;DHT22;27562;47.524;12.404;2023-09-08T10:41:26;25.00;94.80
41882;DHT22;27562;47.524;12.404;2023-09-08T10:54:59;25.60;93.60
41882;DHT22;27562;47.524;12.404;2023-09-08T10:57:31;25.60;93.80
41882;DHT22;27562;47.524;12.404;2023-09-08T11:00:04;25.60;93.30
41882;DHT22;27562;47.524;12.404;2023-09-08T11:02:50;25.80;92.50
41882;DHT22;27562;47.524;12.404;2023-09-08T11:05:17;25.80;93.30
41882;DHT22;27562;47.524;12.404;2023-09-08T11:08:04;25.90;92.00
41882;DHT22;27562;47.524;12.404;2023-09-08T11:10:49;26.00;93.10
41882;DHT22;27562;47.524;12.404;2023-09-08T11:13:23;26.20;93.30
41882;DHT22;27562;47.524;12.404;2023-09-08T11:15:52;26.30;92.50
41882;DHT22;27562;47.524;12.404;2023-09-08T11:18:26;26.40;91.50
41882;DHT22;27562;47.524;12.404;2023-09-08T11:20:52;26.40;91.70
41882;DHT22;27562;47.524;12.404;2023-09-08T11:23:18;26.50;92.00
41882;DHT22;27562;47.524;12.404;2023-09-08T11:25:44;26.60;91.70
41882;DHT22;27562;47.524;12.404;2023-09-08T11:28:10;26.70;91.40
41882;DHT22;27562;47.524;12.404;2023-09-08T11:30:36;26.80;91.30
41882;DHT22;27562;47.524;12.404;2023-09-08T11:33:02;26.90;91.70
41882;DHT22;27562;47.524;12.404;2023-09-08T11:35:28;27.00;92.40
41882;DHT22;27562;47.524;12.404;2023-09-08T11:37:59;27.10;93.80
41882;DHT22;27562;47.524;12.404;2023-09-08T11:40:25;27.20;93.10
41882;DHT22;27562;47.524;12.404;2023-09-08T11:42:53;27.30;92.40
41882;DHT22;27562;47.524;12.404;2023-09-08T11:45:19;27.40;92.80
41882;DHT22;27562;47.524;12.404;2023-09-08T11:47:48;27.40;92.90
41882;DHT22;27562;47.524;12.404;2023-09-08T11:50:18;27.50;93.20
41882;DHT22;27562;47.524;12.404;2023-09-08T11:52:46;27.60;93.10
41882;DHT22;27562;47.524;12.404;2023-09-08T11:55:12;27.70;92.40
41882;DHT22;27562;47.524;12.404;2023-09-08T11:57:40;27.80;94.30
41882;DHT22;27562;47.524;12.404;2023-09-08T12:00:06;27.80;94.20
41882;DHT22;27562;47.524;12.404;2023-09-08T12:02:38;28.00;94.20
41882;DHT22;27562;47.524;12.404;2023-09-08T12:05:04;28.10;94.40
41882;DHT22;27562;47.524;12.404;2023-09-08T12:07:30;28.30;94.10
41882;DHT22;27562;47.524;12.404;2023-09-08T12:09:56;28.40;93.30
41882;DHT22;27562;47.524;12.404;2023-09-08T12:12:25;28.50;93.20
41882;DHT22;27562;47.524;12.404;2023-09-08T12:14:51;28.60;93.40
41882;DHT22;27562;47.524;12.404;2023-09-08T12:17:17;28.60;93.30
41882;DHT22;27562;47.524;12.404;2023-09-08T12:19:43;28.80;92.90
41882;DHT22;27562;47.524;12.404;2023-09-08T12:22:09;28.90;91.80
41882;DHT22;27562;47.524;12.404;2023-09-08T12:24:56;29.00;90.10
41882;DHT22;27562;47.524;12.404;2023-09-08T12:27:22;29.20;85.30
41882;DHT22;27562;47.524;12.404;2023-09-08T12:29:51;29.10;89.40
41882;DHT22;27562;47.524;12.404;2023-09-08T12:32:17;29.30;90.80
41882;DHT22;27562;47.524;12.404;2023-09-08T12:34:43;29.40;86.50
41882;DHT22;27562;47.524;12.404;2023-09-08T12:37:09;29.40;89.30
41882;DHT22;27562;47.524;12.404;2023-09-08T12:39:36;29.50;89.10
41882;DHT22;27562;47.524;12.404;2023-09-08T12:42:03;29.60;90.10
41882;DHT22;27562;47.524;12.404;2023-09-08T12:44:29;29.60;88.90
41882;DHT22;27562;47.524;12.404;2023-09-08T12:46:54;29.60;89.80
41882;DHT22;27562;47.524;12.404;2023-09-08T12:49:20;29.60;88.60
41882;DHT22;27562;47.524;12.404;2023-09-08T12:51:45;29.60;88.20
41882;DHT22;27562;47.524;12.404;2023-09-08T12:54:11;29.50;88.70
41882;DHT22;27562;47.524;12.404;2023-09-08T12:56:36;29.40;88.40
41882;DHT22;27562;47.524;12.404;2023-09-08T12:59:02;29.40;88.10
41882;DHT22;27562;47.524;12.404;2023-09-08T13:01:28;29.40;90.00
41882;DHT22;27562;47.524;12.404;2023-09-08T13:03:54;29.50;90.30
41882;DHT22;27562;47.524;12.404;2023-09-08T13:06:19;29.50;88.50
41882;DHT22;27562;47.524;12.404;2023-09-08T13:08:45;29.60;87.00
41882;DHT22;27562;47.524;12.404;2023-09-08T13:11:11;29.60;87.70
41882;DHT22;27562;47.524;12.404;2023-09-08T13:13:36;29.60;85.20
41882;DHT22;27562;47.524;12.404;2023-09-08T13:16:02;29.60;86.50
41882;DHT22;27562;47.524;12.404;2023-09-08T13:18:28;29.60;86.00
41882;DHT22;27562;47.524;12.404;2023-09-08T13:21:00;29.60;85.50
41882;DHT22;27562;47.524;12.404;2023-09-08T13:23:26;29.60;86.50
41882;DHT22;27562;47.524;12.404;2023-09-08T13:25:52;29.50;85.20
41882;DHT22;27562;47.524;12.404;2023-09-08T13:28:17;29.60;86.10
41882;DHT22;27562;47.524;12.404;2023-09-08T13:30:43;29.50;86.70
41882;DHT22;27562;47.524;12.404;2023-09-08T13:33:09;29.50;87.00
41882;DHT22;27562;47.524;12.404;2023-09-08T13:35:35;29.40;86.40
41882;DHT22;27562;47.524;12.404;2023-09-08T13:38:01;29.50;87.30
41882;DHT22;27562;47.524;12.404;2023-09-08T13:40:28;29.50;87.50
41882;DHT22;27562;47.524;12.404;2023-09-08T13:42:54;29.60;87.00
41882;DHT22;27562;47.524;12.404;2023-09-08T13:45:20;29.60;85.90
41882;DHT22;27562;47.524;12.404;2023-09-08T13:47:46;29.50;87.20
41882;DHT22;27562;47.524;12.404;2023-09-08T13:50:12;29.50;86.50
41882;DHT22;27562;47.524;12.404;2023-09-08T13:52:37;29.50;88.70
41882;DHT22;27562;47.524;12.404;2023-09-08T13:55:07;29.50;86.60
41882;DHT22;27562;47.524;12.404;2023-09-08T13:57:33;29.50;87.00
41882;DHT22;27562;47.524;12.404;2023-09-08T13:59:59;29.50;86.20
41882;DHT22;27562;47.524;12.404;2023-09-08T14:02:25;29.40;87.40
41882;DHT22;27562;47.524;12.404;2023-09-08T14:04:53;29.40;87.90
41882;DHT22;27562;47.524;12.404;2023-09-08T14:07:19;29.30;87.80
41882;DHT22;27562;47.524;12.404;2023-09-08T14:09:44;29.30;88.70
41882;DHT22;27562;47.524;12.404;2023-09-08T14:12:11;29.30;89.20
41882;DHT22;27562;47.524;12.404;2023-09-08T14:14:37;29.30;89.70
41882;DHT22;27562;47.524;12.404;2023-09-08T14:17:02;29.20;88.80
41882;DHT22;27562;47.524;12.404;2023-09-08T14:19:29;29.10;89.10
41882;DHT22;27562;47.524;12.404;2023-09-08T14:21:55;29.10;89.30
41882;DHT22;27562;47.524;12.404;2023-09-08T14:24:21;29.10;88.90
41882;DHT22;27562;47.524;12.404;2023-09-08T14:26:47;29.10;89.60
41882;DHT22;27562;47.524;12.404;2023-09-08T14:29:13;29.00;90.10
41882;DHT22;27562;47.524;12.404;2023-09-08T14:31:39;28.90;90.00
41882;DHT22;27562;47.524;12.404;2023-09-08T14:34:05;28.90;90.30
41882;DHT22;27562;47.524;12.404;2023-09-08T14:36:31;28.70;89.70
41882;DHT22;27562;47.524;12.404;2023-09-08T14:38:57;28.70;90.90
41882;DHT22;27562;47.524;12.404;2023-09-08T14:41:23;28.60;91.00
41882;DHT22;27562;47.524;12.404;2023-09-08T14:43:49;28.70;90.60
41882;DHT22;27562;47.524;12.404;2023-09-08T14:46:15;28.50;90.90
41882;DHT22;27562;47.524;12.404;2023-09-08T14:48:41;28.30;91.20
41882;DHT22;27562;47.524;12.404;2023-09-08T14:51:08;28.20;91.60
41882;DHT22;27562;47.524;12.404;2023-09-08T14:53:34;28.20;92.10
41882;DHT22;27562;47.524;12.404;2023-09-08T14:56:00;28.10;91.80
41882;DHT22;27562;47.524;12.404;2023-09-08T14:58:27;28.10;92.10
41882;DHT22;27562;47.524;12.404;2023-09-08T15:00:58;28.10;92.20
41882;DHT22;27562;47.524;12.404;2023-09-08T15:03:30;28.10;92.20
41882;DHT22;27562;47.524;12.404;2023-09-08T15:05:57;28.10;92.50
41882;DHT22;27562;47.524;12.404;2023-09-08T15:08:23;28.00;92.70
41882;DHT22;27562;47.524;12.404;2023-09-08T15:10:49;27.90;93.00
41882;DHT22;27562;47.524;12.404;2023-09-08T15:13:15;27.90;93.20
41882;DHT22;27562;47.524;12.404;2023-09-08T15:15:41;27.80;93.10
41882;DHT22;27562;47.524;12.404;2023-09-08T15:18:08;27.60;93.30
41882;DHT22;27562;47.524;12.404;2023-09-08T15:20:34;27.60;93.80
41882;DHT22;27562;47.524;12.404;2023-09-08T15:23:00;27.60;94.00
41882;DHT22;27562;47.524;12.404;2023-09-08T15:25:27;27.60;93.90
41882;DHT22;27562;47.524;12.404;2023-09-08T15:27:53;27.50;94.10
41882;DHT22;27562;47.524;12.404;2023-09-08T15:30:19;27.40;94.20
41882;DHT22;27562;47.524;12.404;2023-09-08T15:32:45;27.40;94.40